createdAt,value
2019-05-06T00:01:24.091Z,83.70
2019-05-06T00:03:54.183Z,83.70
2019-05-06T00:06:23.672Z,83.10
2019-05-06T00:08:54.367Z,83.30
2019-05-06T00:11:23.830Z,83.50
2019-05-06T00:13:54.347Z,84.00
2019-05-06T00:16:23.762Z,83.40
2019-05-06T00:18:54.068Z,83.60
2019-05-06T00:21:24.380Z,84.20
2019-05-06T00:23:54.708Z,84.40
2019-05-06T00:26:31.008Z,84.50
2019-05-06T00:29:01.117Z,84.20
2019-05-06T00:31:29.601Z,84.30
2019-05-06T00:33:58.060Z,83.10
2019-05-06T00:36:26.545Z,83.40
2019-05-06T00:38:56.656Z,84.00
2019-05-06T00:41:29.875Z,84.10
2019-05-06T00:43:58.414Z,84.20
2019-05-06T00:46:26.895Z,84.40
2019-05-06T00:48:55.365Z,84.80
2019-05-06T00:51:24.388Z,85.40
2019-05-06T00:53:55.028Z,86.30
2019-05-06T00:56:24.347Z,87.10
2019-05-06T00:58:54.475Z,87.20
2019-05-06T01:01:29.254Z,87.30
2019-05-06T01:03:53.755Z,87.80
2019-05-06T01:06:24.545Z,88.00
2019-05-06T01:08:54.374Z,87.90
2019-05-06T01:11:23.869Z,88.20
2019-05-06T01:13:56.893Z,89.00
2019-05-06T01:16:25.522Z,89.20
2019-05-06T01:18:54.219Z,89.30
2019-05-06T01:21:23.827Z,90.10
2019-05-06T01:23:54.287Z,90.20
2019-05-06T01:26:24.297Z,90.00
2019-05-06T01:28:54.627Z,90.50
2019-05-06T01:31:25.984Z,90.40
2019-05-06T01:33:53.934Z,90.60
2019-05-06T01:36:24.791Z,90.80
2019-05-06T01:38:54.489Z,90.90
2019-05-06T01:41:40.354Z,90.60
2019-05-06T01:44:08.820Z,90.30
2019-05-06T01:46:37.305Z,90.60
2019-05-06T01:49:05.916Z,90.30
2019-05-06T01:51:34.906Z,90.60
2019-05-06T01:54:03.894Z,90.40
2019-05-06T01:56:33.708Z,90.50
2019-05-06T01:59:04.325Z,90.60
2019-05-06T02:01:34.107Z,90.60
2019-05-06T02:04:04.512Z,91.00
2019-05-06T02:06:34.306Z,91.00
2019-05-06T02:09:04.717Z,91.30
2019-05-06T02:11:33.693Z,91.40
2019-05-06T02:14:04.600Z,91.50
2019-05-06T02:16:34.267Z,91.50
2019-05-06T02:19:04.069Z,91.50
2019-05-06T02:21:34.492Z,91.10
2019-05-06T02:24:19.557Z,91.50
2019-05-06T02:26:48.115Z,91.40
2019-05-06T02:29:18.297Z,91.30
2019-05-06T02:31:51.141Z,91.50
2019-05-06T02:34:30.141Z,91.30
2019-05-06T02:37:09.330Z,91.40
2019-05-06T02:39:37.873Z,91.60
2019-05-06T02:42:08.099Z,91.50
2019-05-06T02:44:36.565Z,91.60
2019-05-06T02:47:13.743Z,91.80
2019-05-06T02:49:44.391Z,91.50
2019-05-06T02:52:14.018Z,91.90
2019-05-06T02:54:42.918Z,92.20
2019-05-06T02:57:13.224Z,92.40
2019-05-06T02:59:44.269Z,92.40
2019-05-06T03:02:13.972Z,92.70
2019-05-06T03:04:43.693Z,92.60
2019-05-06T03:07:18.597Z,92.20
2019-05-06T03:09:47.052Z,92.20
2019-05-06T03:12:15.529Z,91.90
2019-05-06T03:14:43.984Z,92.40
2019-05-06T03:17:13.967Z,91.60
2019-05-06T03:19:46.030Z,91.30
2019-05-06T03:22:24.106Z,91.80
2019-05-06T03:24:54.594Z,92.20
2019-05-06T03:27:23.612Z,92.20
2019-05-06T03:29:53.654Z,92.20
2019-05-06T03:32:29.913Z,92.90
2019-05-06T03:35:15.718Z,92.70
2019-05-06T03:37:23.895Z,92.30
2019-05-06T03:39:52.968Z,92.70
2019-05-06T03:42:23.135Z,92.50
2019-05-06T03:44:53.697Z,91.70
2019-05-06T03:47:38.820Z,91.70
2019-05-06T03:50:07.565Z,92.30
2019-05-06T03:52:36.120Z,92.30
2019-05-06T03:55:04.920Z,92.50
2019-05-06T03:57:36.153Z,92.80
2019-05-06T04:00:05.084Z,92.70
2019-05-06T04:02:33.959Z,92.40
2019-05-06T04:05:03.912Z,91.90
2019-05-06T04:07:34.101Z,91.30
2019-05-06T04:10:03.769Z,91.20
2019-05-06T04:12:34.181Z,91.70
2019-05-06T04:15:03.925Z,92.00
2019-05-06T04:17:34.677Z,91.50
2019-05-06T04:20:14.521Z,91.70
2019-05-06T04:22:56.801Z,92.10
2019-05-06T04:25:38.985Z,92.60
2019-05-06T04:28:15.204Z,92.20
2019-05-06T04:30:43.972Z,92.20
2019-05-06T04:33:17.054Z,92.60
2019-05-06T04:35:43.195Z,92.90
2019-05-06T04:38:13.924Z,93.20
2019-05-06T04:40:43.936Z,93.00
2019-05-06T04:43:13.578Z,93.00
2019-05-06T04:45:43.318Z,92.60
2019-05-06T04:48:14.259Z,92.60
2019-05-06T04:50:44.460Z,92.80
2019-05-06T04:53:13.690Z,93.00
2019-05-06T04:55:43.621Z,92.60
2019-05-06T04:58:13.577Z,92.50
2019-05-06T05:00:44.505Z,92.50
2019-05-06T05:03:14.004Z,92.50
2019-05-06T05:05:44.982Z,92.60
2019-05-06T05:08:13.537Z,92.80
2019-05-06T05:10:44.564Z,92.10
2019-05-06T05:13:24.468Z,91.90
2019-05-06T05:16:06.628Z,92.10
2019-05-06T05:18:39.744Z,92.60
2019-05-06T05:21:08.385Z,91.80
2019-05-06T05:23:36.992Z,92.40
2019-05-06T05:26:05.550Z,92.30
2019-05-06T05:28:34.080Z,92.50
2019-05-06T05:31:03.117Z,92.70
2019-05-06T05:33:32.784Z,92.10
2019-05-06T05:36:02.075Z,92.10
2019-05-06T05:38:32.070Z,92.40
2019-05-06T05:41:02.874Z,92.80
2019-05-06T05:43:42.396Z,93.00
2019-05-06T05:46:12.615Z,92.70
2019-05-06T05:48:54.636Z,92.30
2019-05-06T05:51:23.121Z,92.50
2019-05-06T05:53:52.342Z,92.10
2019-05-06T05:56:23.811Z,92.00
2019-05-06T05:58:53.525Z,91.60
2019-05-06T06:01:23.241Z,90.70
2019-05-06T06:03:52.745Z,91.50
2019-05-06T06:06:22.188Z,90.50
2019-05-06T06:08:52.346Z,90.40
2019-05-06T06:11:25.609Z,90.50
2019-05-06T06:13:55.884Z,90.40
2019-05-06T06:16:26.521Z,90.70
2019-05-06T06:18:56.769Z,90.60
2019-05-06T06:21:28.225Z,90.00
2019-05-06T06:23:58.563Z,90.10
2019-05-06T06:26:27.121Z,91.00
2019-05-06T06:28:55.596Z,90.60
2019-05-06T06:31:33.207Z,90.40
2019-05-06T06:34:03.634Z,90.00
2019-05-06T06:36:42.264Z,91.20
2019-05-06T06:39:15.271Z,91.00
2019-05-06T06:41:43.824Z,90.70
2019-05-06T06:44:14.008Z,89.90
2019-05-06T06:46:42.958Z,90.70
2019-05-06T06:49:12.735Z,91.30
2019-05-06T06:51:42.505Z,90.90
2019-05-06T06:54:12.340Z,91.00
2019-05-06T06:56:42.651Z,91.80
2019-05-06T06:59:13.025Z,90.40
2019-05-06T07:01:55.409Z,90.80
2019-05-06T07:04:44.737Z,91.20
2019-05-06T07:07:14.163Z,91.70
2019-05-06T07:09:42.704Z,91.50
2019-05-06T07:12:13.165Z,92.00
2019-05-06T07:14:42.817Z,91.50
2019-05-06T07:17:13.268Z,91.10
2019-05-06T07:19:57.914Z,91.50
2019-05-06T07:22:28.040Z,89.60
2019-05-06T07:24:56.584Z,88.70
2019-05-06T07:27:27.029Z,88.50
2019-05-06T07:29:55.562Z,90.20
2019-05-06T07:32:24.050Z,88.20
2019-05-06T07:34:53.206Z,85.00
2019-05-06T07:37:22.111Z,86.50
2019-05-06T07:39:52.897Z,86.30
2019-05-06T07:42:22.854Z,83.70
2019-05-06T07:44:55.744Z,76.50
2019-05-06T07:47:27.754Z,82.70
2019-05-06T07:49:56.388Z,77.00
2019-05-06T07:52:24.954Z,77.30
2019-05-06T07:54:53.539Z,75.50
2019-05-06T07:57:22.200Z,77.70
2019-05-06T07:59:52.548Z,77.70
2019-05-06T08:02:22.981Z,81.60
2019-05-06T08:04:53.172Z,75.90
2019-05-06T08:07:22.310Z,79.30
2019-05-06T08:09:52.917Z,77.60
2019-05-06T08:12:22.324Z,79.90
2019-05-06T08:14:52.395Z,80.80
2019-05-06T08:17:26.226Z,78.70
2019-05-06T08:19:53.907Z,77.30
2019-05-06T08:22:24.036Z,79.40
2019-05-06T08:24:53.189Z,80.00
2019-05-06T08:27:22.721Z,78.10
2019-05-06T08:29:52.634Z,78.50
2019-05-06T08:32:22.786Z,79.60
2019-05-06T08:34:52.398Z,80.10
2019-05-06T08:37:34.232Z,78.80
2019-05-06T08:40:03.431Z,80.00
2019-05-06T08:42:32.934Z,77.90
2019-05-06T08:45:02.200Z,77.20
2019-05-06T08:47:32.863Z,78.90
2019-05-06T08:50:02.938Z,76.40
2019-05-06T08:52:49.211Z,69.10
2019-05-06T08:55:19.319Z,64.50
2019-05-06T08:57:47.804Z,67.50
2019-05-06T09:00:16.334Z,71.40
2019-05-06T09:02:46.236Z,70.40
2019-05-06T09:05:14.772Z,73.20
2019-05-06T09:07:44.901Z,78.40
2019-05-06T09:10:13.676Z,77.30
2019-05-06T09:12:42.587Z,78.70
2019-05-06T09:15:12.563Z,74.70
2019-05-06T09:17:42.008Z,72.70
2019-05-06T09:20:12.898Z,74.60
2019-05-06T09:22:42.956Z,73.60
2019-05-06T09:25:12.824Z,72.50
2019-05-06T09:27:48.772Z,73.30
2019-05-06T09:30:24.611Z,73.30
2019-05-06T09:32:53.177Z,70.80
2019-05-06T09:35:22.226Z,74.20
2019-05-06T09:37:53.269Z,76.80
2019-05-06T09:40:22.766Z,72.30
2019-05-06T09:42:52.163Z,72.40
2019-05-06T09:45:22.683Z,66.00
2019-05-06T09:47:55.253Z,66.90
2019-05-06T09:50:35.658Z,63.50
2019-05-06T09:53:04.392Z,61.60
2019-05-06T09:55:37.215Z,60.00
2019-05-06T09:58:06.403Z,53.70
2019-05-06T10:00:36.752Z,55.50
2019-05-06T10:03:05.504Z,51.90
2019-05-06T10:05:33.971Z,48.60
2019-05-06T10:08:03.242Z,47.80
2019-05-06T10:10:32.771Z,48.70
2019-05-06T10:13:02.804Z,53.10
2019-05-06T10:15:32.611Z,49.90
2019-05-06T10:18:07.218Z,55.00
2019-05-06T10:20:42.713Z,59.60
2019-05-06T10:23:11.966Z,60.30
2019-05-06T10:25:43.309Z,60.20
2019-05-06T10:28:18.665Z,60.70
2019-05-06T10:30:47.127Z,63.00
2019-05-06T10:33:17.240Z,64.70
2019-05-06T10:35:45.881Z,64.20
2019-05-06T10:38:39.559Z,64.30
2019-05-06T10:41:12.886Z,64.50
2019-05-06T10:44:03.645Z,59.70
2019-05-06T10:46:32.120Z,59.90
2019-05-06T10:49:02.597Z,63.00
2019-05-06T10:51:32.479Z,55.70
2019-05-06T10:54:02.976Z,56.90
2019-05-06T10:56:32.821Z,56.30
2019-05-06T10:59:02.949Z,58.90
2019-05-06T11:01:47.951Z,58.10
2019-05-06T11:04:16.580Z,59.70
2019-05-06T11:06:45.437Z,58.80
2019-05-06T11:09:13.985Z,61.80
2019-05-06T11:11:42.876Z,61.60
2019-05-06T11:14:12.848Z,61.00
2019-05-06T11:16:41.429Z,59.70
2019-05-06T11:19:09.925Z,59.90
2019-05-06T11:21:38.488Z,60.30
2019-05-06T11:24:07.098Z,58.10
2019-05-06T11:26:35.594Z,56.40
2019-05-06T11:29:05.844Z,55.10
2019-05-06T11:31:47.487Z,55.70
2019-05-06T11:34:22.157Z,56.30
2019-05-06T11:36:52.605Z,56.90
2019-05-06T11:39:23.351Z,57.70
2019-05-06T11:42:06.327Z,55.90
2019-05-06T11:44:23.931Z,58.10
2019-05-06T11:46:52.304Z,57.00
2019-05-06T11:49:23.046Z,61.50
2019-05-06T11:51:51.163Z,72.00
2019-05-06T11:54:23.657Z,78.70
2019-05-06T11:56:52.607Z,84.80
2019-05-06T11:59:22.655Z,87.30
2019-05-06T12:01:53.566Z,92.10
2019-05-06T12:04:23.003Z,92.20
2019-05-06T12:06:52.622Z,89.50
2019-05-06T12:09:22.315Z,90.10
2019-05-06T12:11:52.867Z,89.60
2019-05-06T12:14:22.642Z,81.80
2019-05-06T12:16:54.826Z,78.00
2019-05-06T12:19:22.569Z,82.00
2019-05-06T12:21:51.347Z,77.60
2019-05-06T12:24:19.880Z,81.00
2019-05-06T12:26:48.443Z,72.00
2019-05-06T12:29:16.989Z,73.50
2019-05-06T12:31:47.119Z,76.80
2019-05-06T12:34:15.595Z,79.30
2019-05-06T12:36:44.180Z,78.20
2019-05-06T12:39:18.469Z,79.60
2019-05-06T12:41:48.641Z,82.10
2019-05-06T12:44:17.265Z,77.50
2019-05-06T12:47:03.597Z,72.30
2019-05-06T12:49:32.677Z,80.20
2019-05-06T12:52:01.279Z,78.00
2019-05-06T12:54:29.766Z,75.40
2019-05-06T12:56:59.273Z,66.90
2019-05-06T12:59:27.808Z,67.30
2019-05-06T13:01:56.299Z,64.40
2019-05-06T13:04:44.398Z,71.60
2019-05-06T13:06:55.240Z,66.80
2019-05-06T13:09:23.733Z,66.30
2019-05-06T13:11:52.467Z,67.10
2019-05-06T13:14:22.457Z,68.50
2019-05-06T13:16:53.220Z,72.00
2019-05-06T13:19:22.866Z,77.70
2019-05-06T13:21:51.544Z,71.20
2019-05-06T13:24:20.016Z,74.00
2019-05-06T13:26:48.577Z,72.20
2019-05-06T13:29:22.699Z,74.40
2019-05-06T13:31:52.983Z,77.30
2019-05-06T13:34:23.436Z,78.30
2019-05-06T13:36:53.344Z,80.00
2019-05-06T13:39:23.693Z,74.00
2019-05-06T13:41:52.836Z,70.70
2019-05-06T13:44:22.844Z,70.40
2019-05-06T13:46:53.276Z,72.70
2019-05-06T13:49:26.666Z,68.30
2019-05-06T13:51:56.798Z,67.50
2019-05-06T13:54:25.336Z,68.20
2019-05-06T13:56:53.891Z,62.10
2019-05-06T13:59:22.363Z,61.00
2019-05-06T14:02:07.009Z,60.20
2019-05-06T14:04:32.655Z,57.70
2019-05-06T14:07:03.470Z,57.80
2019-05-06T14:09:38.981Z,58.50
2019-05-06T14:12:02.590Z,55.40
2019-05-06T14:14:32.252Z,55.20
2019-05-06T14:17:00.891Z,54.20
2019-05-06T14:19:29.372Z,53.20
2019-05-06T14:21:57.885Z,54.70
2019-05-06T14:24:26.617Z,48.70
2019-05-06T14:26:58.941Z,48.80
2019-05-06T14:29:43.619Z,52.90
2019-05-06T14:32:14.729Z,53.30
2019-05-06T14:34:43.369Z,53.10
2019-05-06T14:37:12.071Z,51.50
2019-05-06T14:39:52.670Z,50.70
2019-05-06T14:42:12.875Z,50.20
2019-05-06T14:44:43.206Z,50.10
2019-05-06T14:47:13.252Z,52.00
2019-05-06T14:49:43.203Z,52.50
2019-05-06T14:52:13.217Z,52.10
2019-05-06T14:54:49.373Z,54.10
2019-05-06T14:57:18.677Z,52.30
2019-05-06T14:59:50.705Z,54.90
2019-05-06T15:02:18.221Z,53.60
2019-05-06T15:04:46.861Z,54.70
2019-05-06T15:07:15.465Z,55.20
2019-05-06T15:09:55.820Z,55.10
2019-05-06T15:12:14.335Z,54.60
2019-05-06T15:14:42.901Z,54.00
2019-05-06T15:17:11.456Z,55.00
2019-05-06T15:19:40.024Z,54.30
2019-05-06T15:22:08.490Z,56.40
2019-05-06T15:24:37.043Z,55.00
2019-05-06T15:27:05.592Z,55.70
2019-05-06T15:29:34.156Z,55.20
2019-05-06T15:32:12.843Z,56.10
2019-05-06T15:34:56.235Z,56.70
2019-05-06T15:37:25.792Z,56.00
2019-05-06T15:39:54.427Z,54.80
2019-05-06T15:42:23.039Z,56.60
2019-05-06T15:44:51.678Z,53.90
2019-05-06T15:47:22.524Z,55.60
2019-05-06T15:49:52.487Z,55.40
2019-05-06T15:52:23.246Z,55.40
2019-05-06T15:54:52.479Z,56.10
2019-05-06T15:57:22.935Z,56.50
2019-05-06T15:59:53.010Z,54.40
2019-05-06T16:02:23.298Z,54.20
2019-05-06T16:04:51.723Z,52.50
2019-05-06T16:07:20.280Z,54.20
2019-05-06T16:09:48.772Z,55.20
2019-05-06T16:12:17.326Z,53.30
2019-05-06T16:14:45.902Z,54.60
2019-05-06T16:17:15.200Z,54.10
2019-05-06T16:19:43.800Z,54.60
2019-05-06T16:22:12.266Z,53.90
2019-05-06T16:24:53.066Z,55.30
2019-05-06T16:27:23.000Z,54.70
2019-05-06T16:29:52.954Z,55.40
2019-05-06T16:32:21.956Z,55.40
2019-05-06T16:34:52.502Z,54.30
2019-05-06T16:37:22.246Z,53.20
2019-05-06T16:39:52.459Z,52.80
2019-05-06T16:42:22.460Z,53.00
2019-05-06T16:44:52.642Z,52.70
2019-05-06T16:47:36.604Z,51.50
2019-05-06T16:50:14.273Z,52.40
2019-05-06T16:52:45.366Z,54.20
2019-05-06T16:55:15.373Z,53.70
2019-05-06T16:57:45.555Z,53.40
2019-05-06T17:00:16.030Z,54.90
2019-05-06T17:02:56.883Z,55.90
2019-05-06T17:05:22.461Z,55.10
2019-05-06T17:07:52.713Z,54.00
2019-05-06T17:10:22.793Z,53.80
2019-05-06T17:12:53.428Z,54.10
2019-05-06T17:15:23.007Z,53.80
2019-05-06T17:17:53.112Z,55.80
2019-05-06T17:20:22.757Z,55.50
2019-05-06T17:22:53.154Z,56.10
2019-05-06T17:25:22.435Z,56.00
2019-05-06T17:27:52.696Z,55.90
2019-05-06T17:30:38.528Z,55.40
2019-05-06T17:33:24.487Z,55.70
2019-05-06T17:35:53.055Z,55.20
2019-05-06T17:38:23.317Z,55.90
2019-05-06T17:40:52.415Z,59.10
2019-05-06T17:43:22.526Z,55.40
2019-05-06T17:46:01.887Z,57.10
2019-05-06T17:48:32.741Z,56.60
2019-05-06T17:51:13.725Z,57.00
2019-05-06T17:53:46.560Z,56.70
2019-05-06T17:56:15.045Z,57.10
2019-05-06T17:58:43.658Z,58.40
2019-05-06T18:01:13.524Z,56.90
2019-05-06T18:03:42.055Z,57.80
2019-05-06T18:06:13.974Z,58.90
2019-05-06T18:08:43.055Z,59.70
2019-05-06T18:11:12.925Z,58.40
2019-05-06T18:13:41.291Z,59.30
2019-05-06T18:16:09.860Z,59.30
2019-05-06T18:18:38.389Z,59.90
2019-05-06T18:21:06.876Z,60.40
2019-05-06T18:23:35.344Z,60.30
2019-05-06T18:26:03.905Z,59.80
2019-05-06T18:28:32.830Z,60.60
2019-05-06T18:31:03.149Z,60.70
2019-05-06T18:33:32.714Z,62.30
2019-05-06T18:36:02.559Z,62.50
2019-05-06T18:38:33.012Z,61.90
2019-05-06T18:41:02.040Z,63.70
2019-05-06T18:43:32.602Z,62.00
2019-05-06T18:46:02.794Z,62.50
2019-05-06T18:48:32.890Z,62.10
2019-05-06T18:51:02.994Z,62.50
2019-05-06T18:53:33.186Z,64.70
2019-05-06T18:56:03.069Z,64.90
2019-05-06T18:58:32.523Z,63.80
2019-05-06T19:01:03.640Z,64.90
2019-05-06T19:03:32.972Z,63.60
2019-05-06T19:06:02.346Z,66.00
2019-05-06T19:08:33.239Z,63.50
2019-05-06T19:11:02.423Z,62.30
2019-05-06T19:13:33.305Z,62.40
2019-05-06T19:16:02.077Z,62.30
2019-05-06T19:18:31.143Z,61.10
2019-05-06T19:20:59.688Z,64.10
2019-05-06T19:23:28.182Z,63.60
2019-05-06T19:25:56.712Z,63.50
2019-05-06T19:28:25.197Z,64.80
2019-05-06T19:30:54.067Z,65.20
2019-05-06T19:33:23.049Z,64.40
2019-05-06T19:35:52.320Z,62.20
2019-05-06T19:38:23.885Z,63.80
2019-05-06T19:40:52.149Z,64.10
2019-05-06T19:43:21.977Z,64.50
2019-05-06T19:45:52.967Z,64.50
2019-05-06T19:48:22.187Z,62.60
2019-05-06T19:50:52.246Z,62.80
2019-05-06T19:53:20.997Z,64.80
2019-05-06T19:55:49.636Z,65.50
2019-05-06T19:58:18.190Z,65.50
2019-05-06T20:00:47.232Z,62.90
2019-05-06T20:03:16.646Z,64.20
2019-05-06T20:05:54.425Z,64.00
2019-05-06T20:08:32.434Z,64.40
2019-05-06T20:11:08.040Z,64.90
2019-05-06T20:13:36.603Z,61.30
2019-05-06T20:16:05.214Z,62.90
2019-05-06T20:18:33.763Z,62.60
2019-05-06T20:21:02.251Z,65.40
2019-05-06T20:23:32.729Z,65.50
2019-05-06T20:26:02.842Z,66.00
2019-05-06T20:28:32.222Z,67.90
2019-05-06T20:31:02.463Z,67.90
2019-05-06T20:33:32.687Z,69.60
2019-05-06T20:36:01.287Z,70.10
2019-05-06T20:38:29.853Z,69.30
2019-05-06T20:40:58.324Z,70.30
2019-05-06T20:43:26.820Z,70.40
2019-05-06T20:45:55.425Z,72.50
2019-05-06T20:48:23.983Z,72.10
2019-05-06T20:50:52.500Z,72.20
2019-05-06T20:53:22.606Z,73.00
2019-05-06T20:55:53.220Z,74.70
2019-05-06T20:58:22.958Z,74.10
2019-05-06T21:00:52.141Z,75.10
2019-05-06T21:03:22.117Z,75.10
2019-05-06T21:05:50.977Z,74.50
2019-05-06T21:08:19.507Z,75.50
2019-05-06T21:10:49.777Z,75.20
2019-05-06T21:13:29.558Z,76.60
2019-05-06T21:15:48.725Z,75.70
2019-05-06T21:18:17.267Z,74.10
2019-05-06T21:20:45.765Z,75.40
2019-05-06T21:23:14.303Z,75.70
2019-05-06T21:25:43.222Z,76.10
2019-05-06T21:28:12.249Z,76.60
2019-05-06T21:30:42.799Z,78.30
2019-05-06T21:33:12.397Z,78.10
2019-05-06T21:35:42.388Z,78.90
2019-05-06T21:38:12.124Z,76.20
2019-05-06T21:40:43.145Z,76.80
2019-05-06T21:43:13.010Z,77.70
2019-05-06T21:45:42.389Z,77.10
2019-05-06T21:48:13.301Z,76.60
2019-05-06T21:50:42.658Z,76.00
2019-05-06T21:53:14.380Z,75.00
2019-05-06T21:55:41.661Z,75.00
2019-05-06T21:58:12.261Z,74.10
2019-05-06T22:01:02.111Z,74.20
2019-05-06T22:03:32.493Z,73.40
2019-05-06T22:06:02.212Z,75.60
2019-05-06T22:08:32.664Z,74.30
2019-05-06T22:11:02.981Z,75.10
2019-05-06T22:13:33.066Z,75.40
2019-05-06T22:16:04.347Z,76.40
2019-05-06T22:18:31.629Z,76.70
2019-05-06T22:21:07.737Z,78.10
2019-05-06T22:23:49.649Z,78.50
2019-05-06T22:26:18.240Z,79.90
2019-05-06T22:28:46.912Z,80.90
2019-05-06T22:31:15.501Z,81.80
2019-05-06T22:33:44.292Z,83.20
2019-05-06T22:36:13.305Z,83.70
2019-05-06T22:38:43.992Z,85.00
2019-05-06T22:41:12.413Z,86.00
2019-05-06T22:43:42.407Z,86.50
2019-05-06T22:46:12.342Z,86.00
2019-05-06T22:48:43.158Z,86.90
2019-05-06T22:51:12.404Z,86.10
2019-05-06T22:53:42.475Z,85.50
2019-05-06T22:56:12.840Z,85.60
2019-05-06T22:58:42.806Z,85.70
2019-05-06T23:01:13.250Z,86.60
2019-05-06T23:03:43.048Z,87.80
2019-05-06T23:06:12.527Z,87.00
2019-05-06T23:08:43.222Z,88.10
2019-05-06T23:11:13.369Z,87.50
2019-05-06T23:13:41.897Z,87.90
2019-05-06T23:16:12.882Z,88.00
2019-05-06T23:18:42.911Z,88.60
2019-05-06T23:21:11.768Z,89.00
2019-05-06T23:23:43.520Z,90.00
2019-05-06T23:26:19.542Z,90.10
2019-05-06T23:28:48.161Z,90.20
2019-05-06T23:31:16.873Z,90.00
2019-05-06T23:33:45.490Z,90.20
2019-05-06T23:36:14.164Z,90.20
2019-05-06T23:39:18.833Z,89.90
2019-05-06T23:42:23.453Z,89.70
2019-05-06T23:45:27.906Z,90.10
2019-05-06T23:48:32.350Z,90.10
2019-05-06T23:51:36.897Z,90.40
2019-05-06T23:54:42.805Z,90.30
2019-05-06T23:57:10.338Z,90.40
2019-05-06T23:59:38.890Z,90.40
